createdAt,value
2017-06-23T00:00:44.519Z,17.90
2017-06-23T00:03:13.610Z,17.90
2017-06-23T00:05:42.667Z,17.90
2017-06-23T00:08:11.077Z,17.90
2017-06-23T00:10:40.173Z,18.00
2017-06-23T00:13:09.235Z,17.90
2017-06-23T00:15:37.543Z,17.90
2017-06-23T00:18:05.887Z,17.90
2017-06-23T00:20:34.176Z,17.80
2017-06-23T00:23:02.475Z,17.80
2017-06-23T00:25:30.846Z,17.80
2017-06-23T00:27:59.226Z,17.80
2017-06-23T00:30:27.615Z,17.80
2017-06-23T00:32:56.711Z,17.80
2017-06-23T00:35:25.762Z,17.80
2017-06-23T00:37:54.094Z,17.80
2017-06-23T00:40:22.396Z,17.70
2017-06-23T00:42:50.731Z,17.70
2017-06-23T00:45:19.074Z,17.70
2017-06-23T00:47:47.378Z,17.70
2017-06-23T00:50:15.665Z,17.70
2017-06-23T00:52:44.883Z,17.80
2017-06-23T00:55:13.174Z,17.70
2017-06-23T00:57:41.471Z,17.70
2017-06-23T01:00:09.899Z,17.70
2017-06-23T01:02:38.954Z,17.70
2017-06-23T01:05:07.271Z,17.70
2017-06-23T01:07:36.371Z,17.70
2017-06-23T01:10:05.445Z,17.70
2017-06-23T01:12:33.943Z,17.70
2017-06-23T01:15:03.047Z,17.80
2017-06-23T01:17:32.135Z,17.90
2017-06-23T01:20:01.235Z,17.80
2017-06-23T01:22:30.309Z,17.90
2017-06-23T01:24:58.603Z,17.90
2017-06-23T01:27:27.799Z,17.80
2017-06-23T01:29:56.894Z,17.80
2017-06-23T01:32:26.003Z,17.80
2017-06-23T01:34:55.068Z,17.90
2017-06-23T01:37:23.391Z,17.90
2017-06-23T01:39:51.687Z,17.80
2017-06-23T01:42:20.102Z,17.90
2017-06-23T01:44:48.482Z,17.90
2017-06-23T01:47:16.871Z,17.80
2017-06-23T01:49:45.939Z,17.80
2017-06-23T01:52:14.637Z,17.80
2017-06-23T01:54:43.083Z,17.80
2017-06-23T01:57:12.181Z,17.70
2017-06-23T01:59:41.233Z,17.70
2017-06-23T02:02:09.529Z,17.70
2017-06-23T02:04:37.933Z,17.70
2017-06-23T02:07:06.987Z,17.70
2017-06-23T02:09:35.314Z,17.70
2017-06-23T02:12:03.597Z,17.70
2017-06-23T02:14:31.891Z,17.70
2017-06-23T02:17:00.337Z,17.70
2017-06-23T02:19:29.380Z,17.60
2017-06-23T02:21:57.710Z,17.60
2017-06-23T02:24:26.761Z,17.60
2017-06-23T02:26:55.264Z,17.60
2017-06-23T02:29:23.645Z,17.60
2017-06-23T02:31:52.041Z,17.70
2017-06-23T02:34:21.238Z,17.60
2017-06-23T02:36:50.324Z,17.50
2017-06-23T02:39:18.655Z,17.50
2017-06-23T02:41:46.983Z,17.50
2017-06-23T02:44:15.362Z,17.50
2017-06-23T02:46:44.495Z,17.40
2017-06-23T02:49:12.825Z,17.40
2017-06-23T02:51:41.108Z,17.40
2017-06-23T02:54:09.490Z,17.50
2017-06-23T02:56:38.546Z,17.50
2017-06-23T02:59:06.840Z,17.50
2017-06-23T03:01:35.234Z,17.50
2017-06-23T03:04:03.610Z,17.50
2017-06-23T03:06:31.944Z,17.40
2017-06-23T03:09:00.270Z,17.50
2017-06-23T03:11:28.650Z,17.40
2017-06-23T03:13:57.024Z,17.40
2017-06-23T03:16:25.310Z,17.50
2017-06-23T03:18:54.409Z,17.50
2017-06-23T03:21:23.449Z,17.50
2017-06-23T03:23:51.744Z,17.50
2017-06-23T03:26:20.128Z,17.50
2017-06-23T03:28:48.417Z,17.50
2017-06-23T03:31:16.798Z,17.60
2017-06-23T03:33:45.083Z,17.60
2017-06-23T03:36:13.369Z,17.60
2017-06-23T03:38:41.687Z,17.70
2017-06-23T03:41:09.957Z,17.70
2017-06-23T03:43:38.273Z,17.80
2017-06-23T03:46:06.596Z,17.80
2017-06-23T03:48:34.884Z,17.70
2017-06-23T03:51:03.280Z,17.70
2017-06-23T03:53:32.383Z,17.70
2017-06-23T03:56:01.426Z,17.70
2017-06-23T03:58:29.707Z,17.60
2017-06-23T04:00:58.132Z,17.60
2017-06-23T04:03:27.231Z,17.70
2017-06-23T04:05:56.320Z,17.70
2017-06-23T04:08:25.370Z,17.70
2017-06-23T04:10:53.689Z,17.70
2017-06-23T04:13:22.020Z,17.90
2017-06-23T04:15:50.302Z,18.00
2017-06-23T04:18:18.588Z,18.00
2017-06-23T04:20:46.989Z,18.20
2017-06-23T04:23:15.377Z,18.30
2017-06-23T04:25:43.682Z,18.30
2017-06-23T04:28:11.957Z,18.30
2017-06-23T04:30:40.283Z,18.20
2017-06-23T04:33:09.457Z,18.20
2017-06-23T04:35:37.777Z,18.20
2017-06-23T04:38:06.063Z,18.20
2017-06-23T04:40:34.394Z,18.20
2017-06-23T04:43:02.723Z,18.30
2017-06-23T04:45:31.013Z,18.40
2017-06-23T04:47:59.299Z,18.50
2017-06-23T04:50:27.702Z,18.50
2017-06-23T04:52:56.026Z,18.60
2017-06-23T04:55:24.394Z,18.60
2017-06-23T04:57:52.735Z,18.50
2017-06-23T05:00:21.005Z,18.50
2017-06-23T05:02:49.294Z,18.50
2017-06-23T05:05:17.716Z,18.40
2017-06-23T05:07:46.915Z,18.40
2017-06-23T05:10:16.097Z,18.40
2017-06-23T05:12:44.487Z,18.40
2017-06-23T05:15:13.577Z,18.40
2017-06-23T05:17:41.862Z,18.40
2017-06-23T05:20:11.050Z,18.50
2017-06-23T05:22:39.522Z,18.50
2017-06-23T05:25:07.794Z,18.50
2017-06-23T05:27:36.186Z,18.60
2017-06-23T05:30:04.576Z,18.50
2017-06-23T05:32:33.658Z,18.70
2017-06-23T05:35:02.038Z,18.70
2017-06-23T05:37:30.326Z,18.70
2017-06-23T05:39:59.419Z,19.10
2017-06-23T05:42:28.605Z,19.10
2017-06-23T05:44:56.898Z,19.10
2017-06-23T05:47:25.991Z,19.10
2017-06-23T05:49:55.083Z,19.30
2017-06-23T05:52:23.387Z,19.30
2017-06-23T05:54:52.499Z,19.70
2017-06-23T05:57:21.544Z,19.40
2017-06-23T05:59:49.834Z,19.40
2017-06-23T06:02:18.155Z,19.30
2017-06-23T06:04:46.592Z,19.20
2017-06-23T06:07:14.879Z,19.10
2017-06-23T06:09:43.176Z,18.90
2017-06-23T06:12:12.310Z,18.60
2017-06-23T06:14:40.630Z,18.60
2017-06-23T06:17:08.913Z,18.60
2017-06-23T06:19:38.025Z,18.50
2017-06-23T06:22:07.365Z,18.50
2017-06-23T06:24:36.463Z,18.60
2017-06-23T06:27:05.642Z,18.50
2017-06-23T06:29:34.859Z,18.60
2017-06-23T06:32:04.034Z,18.60
2017-06-23T06:34:33.151Z,18.60
2017-06-23T06:37:01.440Z,18.60
2017-06-23T06:39:29.726Z,18.60
2017-06-23T06:41:58.838Z,18.60
2017-06-23T06:44:28.009Z,18.50
2017-06-23T06:46:57.070Z,18.50
2017-06-23T06:49:25.462Z,18.40
2017-06-23T06:51:53.854Z,18.40
2017-06-23T06:54:22.129Z,18.40
2017-06-23T06:56:51.218Z,18.30
2017-06-23T06:59:19.607Z,18.30
2017-06-23T07:01:48.663Z,18.20
2017-06-23T07:04:17.079Z,18.20
2017-06-23T07:06:46.277Z,18.20
2017-06-23T07:09:15.361Z,18.10
2017-06-23T07:11:43.655Z,18.10
2017-06-23T07:14:12.842Z,17.90
2017-06-23T07:16:41.131Z,17.90
2017-06-23T07:19:09.414Z,17.90
2017-06-23T07:21:37.751Z,17.90
2017-06-23T07:24:06.133Z,17.90
2017-06-23T07:26:34.432Z,18.00
2017-06-23T07:29:02.806Z,18.00
2017-06-23T07:31:31.143Z,18.10
2017-06-23T07:33:59.479Z,18.10
2017-06-23T07:36:28.565Z,18.20
2017-06-23T07:38:57.775Z,18.20
2017-06-23T07:41:26.870Z,18.20
2017-06-23T07:43:56.064Z,18.20
2017-06-23T07:46:25.155Z,18.20
2017-06-23T07:48:54.256Z,18.40
2017-06-23T07:51:23.436Z,18.30
2017-06-23T07:53:51.728Z,18.40
2017-06-23T07:56:20.921Z,18.40
2017-06-23T07:58:50.009Z,18.30
2017-06-23T08:01:18.393Z,18.30
2017-06-23T08:03:46.769Z,18.20
2017-06-23T08:06:15.115Z,18.10
2017-06-23T08:08:43.394Z,18.00
2017-06-23T08:11:11.677Z,17.80
2017-06-23T08:13:40.033Z,17.80
2017-06-23T08:16:08.326Z,17.80
2017-06-23T08:18:36.647Z,17.80
2017-06-23T08:21:05.734Z,18.00
2017-06-23T08:23:34.838Z,17.90
2017-06-23T08:26:03.944Z,18.00
2017-06-23T08:28:33.117Z,18.30
2017-06-23T08:31:01.490Z,18.20
2017-06-23T08:33:29.774Z,18.40
2017-06-23T08:35:58.962Z,18.50
2017-06-23T08:38:27.292Z,18.40
2017-06-23T08:40:55.570Z,18.70
2017-06-23T08:43:23.998Z,18.90
2017-06-23T08:45:52.378Z,19.10
2017-06-23T08:48:20.662Z,19.30
2017-06-23T08:50:49.758Z,19.60
2017-06-23T08:53:18.098Z,19.60
2017-06-23T08:55:46.392Z,19.70
2017-06-23T08:58:14.666Z,19.80
2017-06-23T09:00:43.007Z,19.80
2017-06-23T09:03:11.292Z,19.90
2017-06-23T09:05:39.574Z,20.00
2017-06-23T09:08:07.890Z,19.80
2017-06-23T09:10:36.944Z,19.90
2017-06-23T09:13:05.253Z,19.80
2017-06-23T09:15:34.320Z,19.70
2017-06-23T09:18:02.702Z,19.70
2017-06-23T09:20:31.035Z,19.60
2017-06-23T09:23:00.133Z,19.70
2017-06-23T09:25:29.294Z,19.80
2017-06-23T09:27:57.602Z,19.80
2017-06-23T09:30:25.922Z,19.90
2017-06-23T09:32:54.198Z,19.90
2017-06-23T09:35:22.470Z,20.00
2017-06-23T09:37:50.797Z,20.20
2017-06-23T09:40:19.188Z,20.20
2017-06-23T09:42:47.554Z,20.30
2017-06-23T09:45:15.891Z,20.30
2017-06-23T09:47:44.262Z,20.30
2017-06-23T09:50:12.538Z,20.40
2017-06-23T09:52:40.850Z,20.20
2017-06-23T09:55:10.036Z,20.30
2017-06-23T09:57:38.360Z,20.30
2017-06-23T10:00:06.795Z,20.20
2017-06-23T10:02:35.079Z,20.00
2017-06-23T10:05:04.153Z,20.20
2017-06-23T10:07:32.551Z,20.20
2017-06-23T10:10:01.600Z,20.20
2017-06-23T10:12:30.002Z,20.20
2017-06-23T10:14:58.281Z,20.20
2017-06-23T10:17:26.585Z,20.20
2017-06-23T10:19:55.675Z,20.20
2017-06-23T10:22:24.759Z,20.20
2017-06-23T10:24:53.860Z,20.20
2017-06-23T10:27:22.941Z,20.30
2017-06-23T10:29:51.260Z,20.30
2017-06-23T10:32:19.599Z,20.40
2017-06-23T10:34:47.860Z,20.50
2017-06-23T10:37:16.251Z,20.60
2017-06-23T10:39:45.293Z,20.90
2017-06-23T10:42:14.299Z,20.90
2017-06-23T10:44:42.618Z,21.00
2017-06-23T10:47:11.702Z,20.90
2017-06-23T10:49:39.994Z,20.90
2017-06-23T10:52:08.298Z,20.90
2017-06-23T10:54:36.583Z,20.70
2017-06-23T10:57:05.083Z,20.70
2017-06-23T10:59:34.179Z,20.60
2017-06-23T11:02:02.490Z,20.60
2017-06-23T11:04:30.861Z,20.60
2017-06-23T11:06:59.235Z,20.60
2017-06-23T11:09:28.342Z,20.50
2017-06-23T11:11:57.433Z,20.60
2017-06-23T11:14:26.598Z,20.60
2017-06-23T11:16:54.990Z,20.60
2017-06-23T11:19:23.266Z,20.80
2017-06-23T11:21:51.556Z,20.70
2017-06-23T11:24:20.651Z,20.80
2017-06-23T11:26:49.723Z,20.80
2017-06-23T11:29:18.042Z,20.80
2017-06-23T11:31:46.317Z,20.70
2017-06-23T11:34:14.594Z,20.70
2017-06-23T11:36:42.918Z,20.60
2017-06-23T11:39:11.190Z,20.60
2017-06-23T11:41:39.468Z,20.60
2017-06-23T11:44:07.785Z,20.50
2017-06-23T11:46:36.830Z,20.70
2017-06-23T11:49:05.107Z,20.60
2017-06-23T11:51:33.430Z,20.60
2017-06-23T11:54:02.510Z,20.60
2017-06-23T11:56:31.708Z,20.70
2017-06-23T11:58:59.982Z,20.70
2017-06-23T12:01:28.363Z,20.60
2017-06-23T12:03:56.743Z,20.60
2017-06-23T12:06:25.022Z,20.70
2017-06-23T12:08:54.075Z,20.70
2017-06-23T12:11:22.396Z,20.60
2017-06-23T12:13:51.438Z,20.70
2017-06-23T12:16:19.754Z,20.70
2017-06-23T12:18:48.073Z,20.70
2017-06-23T12:21:16.360Z,20.80
2017-06-23T12:23:44.711Z,20.80
2017-06-23T12:26:13.004Z,20.80
2017-06-23T12:28:41.360Z,20.70
2017-06-23T12:31:09.736Z,20.80
2017-06-23T12:33:38.013Z,20.70
2017-06-23T12:36:06.398Z,20.70
2017-06-23T12:38:34.683Z,20.70
2017-06-23T12:41:03.065Z,20.70
2017-06-23T12:43:31.389Z,20.80
2017-06-23T12:45:59.719Z,20.70
2017-06-23T12:48:28.771Z,20.70
2017-06-23T12:50:57.103Z,20.80
2017-06-23T12:53:26.150Z,20.90
2017-06-23T12:55:54.563Z,20.90
2017-06-23T12:58:22.934Z,20.90
2017-06-23T13:00:51.263Z,20.90
2017-06-23T13:03:19.587Z,20.90
2017-06-23T13:05:47.972Z,20.90
2017-06-23T13:08:16.259Z,20.90
2017-06-23T13:10:45.447Z,21.10
2017-06-23T13:13:13.725Z,21.10
2017-06-23T13:15:42.914Z,21.20
2017-06-23T13:18:11.324Z,21.20
2017-06-23T13:20:40.379Z,21.30
2017-06-23T13:23:08.710Z,21.30
2017-06-23T13:25:36.986Z,21.40
2017-06-23T13:28:05.262Z,21.60
2017-06-23T13:30:33.598Z,21.50
2017-06-23T13:33:01.983Z,21.30
2017-06-23T13:35:30.354Z,21.30
2017-06-23T13:37:58.634Z,21.30
2017-06-23T13:40:27.006Z,21.30
2017-06-23T13:42:55.391Z,21.30
2017-06-23T13:45:23.666Z,21.20
2017-06-23T13:47:52.052Z,21.40
2017-06-23T13:50:20.361Z,21.50
2017-06-23T13:52:48.697Z,21.60
2017-06-23T13:55:17.043Z,21.70
2017-06-23T13:57:45.349Z,21.70
2017-06-23T14:00:13.631Z,21.70
2017-06-23T14:02:41.967Z,21.80
2017-06-23T14:05:10.286Z,21.80
2017-06-23T14:07:38.559Z,21.90
2017-06-23T14:10:06.933Z,21.90
2017-06-23T14:12:35.219Z,22.00
2017-06-23T14:15:03.593Z,22.20
2017-06-23T14:17:31.925Z,22.30
2017-06-23T14:20:00.250Z,22.40
2017-06-23T14:22:28.540Z,22.40
2017-06-23T14:24:56.925Z,22.30
2017-06-23T14:27:25.211Z,22.30
2017-06-23T14:29:53.527Z,22.40
2017-06-23T14:32:21.863Z,22.30
2017-06-23T14:34:50.233Z,22.40
2017-06-23T14:37:18.563Z,22.40
2017-06-23T14:39:46.890Z,22.40
2017-06-23T14:42:15.987Z,22.30
2017-06-23T14:44:44.372Z,22.20
2017-06-23T14:47:12.681Z,22.10
2017-06-23T14:49:40.994Z,22.00
2017-06-23T14:52:09.294Z,21.70
2017-06-23T14:54:37.632Z,21.50
2017-06-23T14:57:05.946Z,21.50
2017-06-23T14:59:34.310Z,21.50
2017-06-23T15:02:02.634Z,21.50
2017-06-23T15:04:30.915Z,21.70
2017-06-23T15:06:59.241Z,21.80
2017-06-23T15:09:27.522Z,22.00
2017-06-23T15:11:55.853Z,22.10
2017-06-23T15:14:24.243Z,22.10
2017-06-23T15:16:52.591Z,22.00
2017-06-23T15:19:20.901Z,21.90
2017-06-23T15:21:49.956Z,21.80
2017-06-23T15:24:18.267Z,21.80
2017-06-23T15:26:46.632Z,21.70
2017-06-23T15:29:14.907Z,21.60
2017-06-23T15:31:43.203Z,21.60
2017-06-23T15:34:11.523Z,21.50
2017-06-23T15:36:40.843Z,21.40
2017-06-23T15:39:09.141Z,21.40
2017-06-23T15:41:37.435Z,21.30
2017-06-23T15:44:05.757Z,21.40
2017-06-23T15:46:34.063Z,21.50
2017-06-23T15:49:02.555Z,21.60
2017-06-23T15:51:30.830Z,22.20
2017-06-23T15:53:59.152Z,23.10
2017-06-23T15:56:27.426Z,23.70
2017-06-23T15:58:55.766Z,25.00
2017-06-23T16:01:24.906Z,25.50
2017-06-23T16:03:53.187Z,25.50
2017-06-23T16:06:22.151Z,25.50
2017-06-23T16:08:51.199Z,24.60
2017-06-23T16:11:19.502Z,24.50
2017-06-23T16:13:47.877Z,23.90
2017-06-23T16:16:16.166Z,23.60
2017-06-23T16:18:44.547Z,23.60
2017-06-23T16:21:12.822Z,23.70
2017-06-23T16:23:41.923Z,24.10
2017-06-23T16:26:11.002Z,24.60
2017-06-23T16:28:45.282Z,24.60
2017-06-23T16:31:13.632Z,24.90
2017-06-23T16:33:42.824Z,25.50
2017-06-23T16:36:11.189Z,25.40
2017-06-23T16:38:40.296Z,25.20
2017-06-23T16:41:08.579Z,25.20
2017-06-23T16:43:36.927Z,25.40
2017-06-23T16:46:05.259Z,25.60
2017-06-23T16:48:33.615Z,26.00
2017-06-23T16:51:02.697Z,25.70
2017-06-23T16:53:31.751Z,25.20
2017-06-23T16:56:00.149Z,25.20
2017-06-23T16:58:28.453Z,24.50
2017-06-23T17:00:57.561Z,24.10
2017-06-23T17:03:25.839Z,24.10
2017-06-23T17:05:54.114Z,24.00
2017-06-23T17:08:22.558Z,23.90
2017-06-23T17:10:50.962Z,23.70
2017-06-23T17:13:20.046Z,23.50
2017-06-23T17:15:48.424Z,23.50
2017-06-23T17:18:17.506Z,23.40
2017-06-23T17:20:45.782Z,23.40
2017-06-23T17:23:14.121Z,23.30
2017-06-23T17:25:42.430Z,22.90
2017-06-23T17:28:10.880Z,22.70
2017-06-23T17:30:39.336Z,22.70
2017-06-23T17:33:07.626Z,22.50
2017-06-23T17:35:35.954Z,22.40
2017-06-23T17:38:04.329Z,22.40
2017-06-23T17:40:32.676Z,22.30
2017-06-23T17:43:01.872Z,22.30
2017-06-23T17:45:30.919Z,22.20
2017-06-23T17:47:59.193Z,22.20
2017-06-23T17:50:28.295Z,22.20
2017-06-23T17:52:56.638Z,22.20
2017-06-23T17:55:24.918Z,22.20
2017-06-23T17:57:53.245Z,22.10
2017-06-23T18:00:22.313Z,22.00
2017-06-23T18:02:50.690Z,22.00
2017-06-23T18:05:19.209Z,22.00
2017-06-23T18:07:47.497Z,22.00
2017-06-23T18:10:15.874Z,22.00
2017-06-23T18:12:44.150Z,22.00
2017-06-23T18:15:12.496Z,21.90
2017-06-23T18:17:40.769Z,21.90
2017-06-23T18:20:09.051Z,21.80
2017-06-23T18:22:37.559Z,21.90
2017-06-23T18:25:05.837Z,21.80
2017-06-23T18:27:34.119Z,21.80
2017-06-23T18:30:02.447Z,21.90
2017-06-23T18:32:30.722Z,21.90
2017-06-23T18:34:59.011Z,21.80
2017-06-23T18:37:27.354Z,21.80
2017-06-23T18:39:56.400Z,21.70
2017-06-23T18:42:24.700Z,21.70
2017-06-23T18:44:53.150Z,21.70
2017-06-23T18:47:21.446Z,21.60
2017-06-23T18:49:50.495Z,21.50
2017-06-23T18:52:18.854Z,21.50
2017-06-23T18:54:47.139Z,21.40
2017-06-23T18:57:15.546Z,21.50
2017-06-23T18:59:43.866Z,21.40
2017-06-23T19:02:12.159Z,21.30
2017-06-23T19:04:40.453Z,21.30
2017-06-23T19:07:08.768Z,21.30
2017-06-23T19:09:37.808Z,21.20
2017-06-23T19:12:06.130Z,21.20
2017-06-23T19:14:34.471Z,21.20
2017-06-23T19:17:02.790Z,21.20
2017-06-23T19:19:31.062Z,21.10
2017-06-23T19:21:59.385Z,21.10
2017-06-23T19:24:27.666Z,21.00
2017-06-23T19:26:55.959Z,20.90
2017-06-23T19:29:24.283Z,20.90
2017-06-23T19:31:53.326Z,20.80
2017-06-23T19:34:21.651Z,20.80
2017-06-23T19:36:50.117Z,20.80
2017-06-23T19:39:18.381Z,20.70
2017-06-23T19:41:46.670Z,20.70
2017-06-23T19:44:16.408Z,20.70
2017-06-23T19:46:44.778Z,20.60
2017-06-23T19:49:13.064Z,20.60
2017-06-23T19:51:41.378Z,20.50
2017-06-23T19:54:09.667Z,20.40
2017-06-23T19:56:38.086Z,20.40
2017-06-23T19:59:06.362Z,20.30
2017-06-23T20:01:34.711Z,20.20
2017-06-23T20:04:03.064Z,20.20
2017-06-23T20:06:31.351Z,20.20
2017-06-23T20:08:59.837Z,20.20
2017-06-23T20:11:28.154Z,20.20
2017-06-23T20:13:56.503Z,20.10
2017-06-23T20:16:24.870Z,20.00
2017-06-23T20:18:53.245Z,20.00
2017-06-23T20:21:21.727Z,20.00
2017-06-23T20:23:50.046Z,19.90
2017-06-23T20:26:18.387Z,19.90
2017-06-23T20:28:46.799Z,19.80
2017-06-23T20:31:15.141Z,19.80
2017-06-23T20:33:43.522Z,19.80
2017-06-23T20:36:11.794Z,19.80
2017-06-23T20:38:40.184Z,19.80
2017-06-23T20:41:08.459Z,19.60
2017-06-23T20:43:36.878Z,19.70
2017-06-23T20:46:05.210Z,19.70
2017-06-23T20:48:33.599Z,19.70
2017-06-23T20:51:02.654Z,19.60
2017-06-23T20:53:30.942Z,19.50
2017-06-23T20:55:59.250Z,19.50
2017-06-23T20:58:28.337Z,19.50
2017-06-23T21:00:56.711Z,19.40
2017-06-23T21:03:24.981Z,19.40
2017-06-23T21:05:53.312Z,19.40
2017-06-23T21:08:21.599Z,19.30
2017-06-23T21:10:49.931Z,19.30
2017-06-23T21:13:18.242Z,19.30
2017-06-23T21:15:46.679Z,19.30
2017-06-23T21:18:14.990Z,19.30
2017-06-23T21:20:43.316Z,19.30
2017-06-23T21:23:11.599Z,19.20
2017-06-23T21:25:39.878Z,19.20
2017-06-23T21:28:08.210Z,19.20
2017-06-23T21:30:36.496Z,19.30
2017-06-23T21:33:04.943Z,19.20
2017-06-23T21:35:33.446Z,19.00
2017-06-23T21:38:01.797Z,18.90
2017-06-23T21:40:41.905Z,18.90
2017-06-23T21:43:10.255Z,19.00
2017-06-23T21:45:38.540Z,19.10
2017-06-23T21:48:07.648Z,19.10
2017-06-23T21:50:36.042Z,19.10
2017-06-23T21:53:04.328Z,19.10
2017-06-23T21:55:32.682Z,19.00
2017-06-23T21:58:00.991Z,19.00
2017-06-23T22:00:29.373Z,19.00
2017-06-23T22:02:57.754Z,19.00
2017-06-23T22:05:26.022Z,19.00
2017-06-23T22:07:54.413Z,19.00
2017-06-23T22:10:22.700Z,19.00
2017-06-23T22:12:50.982Z,19.00
2017-06-23T22:15:20.141Z,19.00
2017-06-23T22:17:48.442Z,19.00
2017-06-23T22:20:16.814Z,18.90
2017-06-23T22:22:45.129Z,18.90
2017-06-23T22:25:13.432Z,19.00
2017-06-23T22:27:42.550Z,19.00
2017-06-23T22:30:10.824Z,19.00
2017-06-23T22:32:39.170Z,19.00
2017-06-23T22:35:07.502Z,19.00
2017-06-23T22:37:35.778Z,18.90
2017-06-23T22:40:04.046Z,18.80
2017-06-23T22:42:32.387Z,18.80
2017-06-23T22:45:00.755Z,18.90
2017-06-23T22:47:29.128Z,18.90
2017-06-23T22:49:58.307Z,18.90
2017-06-23T22:52:26.582Z,18.90
2017-06-23T22:54:55.305Z,18.90
2017-06-23T22:57:29.706Z,18.90
2017-06-23T22:59:58.081Z,18.90
2017-06-23T23:02:26.456Z,18.80
2017-06-23T23:04:54.754Z,18.80
2017-06-23T23:07:23.825Z,18.80
2017-06-23T23:09:52.149Z,18.80
2017-06-23T23:12:20.421Z,18.90
2017-06-23T23:14:48.757Z,18.80
2017-06-23T23:17:17.080Z,18.80
2017-06-23T23:19:45.353Z,18.90
2017-06-23T23:22:13.692Z,18.80
2017-06-23T23:24:42.074Z,18.80
2017-06-23T23:27:10.355Z,18.80
2017-06-23T23:29:38.634Z,18.80
2017-06-23T23:32:06.998Z,18.80
2017-06-23T23:34:35.326Z,18.90
2017-06-23T23:37:03.609Z,18.90
2017-06-23T23:39:32.009Z,18.90
2017-06-23T23:42:00.386Z,18.90
2017-06-23T23:44:28.666Z,18.90
2017-06-23T23:46:57.041Z,18.90
2017-06-23T23:49:25.317Z,18.80
2017-06-23T23:51:53.638Z,18.90
2017-06-23T23:54:21.970Z,18.90
2017-06-23T23:56:50.286Z,18.90
2017-06-23T23:59:18.614Z,18.90
